sensor_id;sensor_type;location;lat;lon;timestamp;P1;durP1;ratioP1;P2;durP2;ratioP2
42478;SDS011;28110;47.080;9.476;2023-07-22T00:00:51;4.55;;;3.15;;
42478;SDS011;28110;47.080;9.476;2023-07-22T00:03:17;5.55;;;3.47;;
42478;SDS011;28110;47.080;9.476;2023-07-22T00:05:42;4.60;;;3.30;;
42478;SDS011;28110;47.080;9.476;2023-07-22T00:08:08;5.65;;;3.60;;
42478;SDS011;28110;47.080;9.476;2023-07-22T00:10:34;6.43;;;3.23;;
42478;SDS011;28110;47.080;9.476;2023-07-22T00:12:59;7.33;;;3.73;;
42478;SDS011;28110;47.080;9.476;2023-07-22T00:15:26;4.75;;;3.42;;
42478;SDS011;28110;47.080;9.476;2023-07-22T00:17:51;3.45;;;3.03;;
42478;SDS011;28110;47.080;9.476;2023-07-22T00:20:17;5.47;;;3.77;;
42478;SDS011;28110;47.080;9.476;2023-07-22T00:22:44;4.82;;;3.60;;
42478;SDS011;28110;47.080;9.476;2023-07-22T00:25:10;5.83;;;3.20;;
42478;SDS011;28110;47.080;9.476;2023-07-22T00:27:37;6.57;;;3.00;;
42478;SDS011;28110;47.080;9.476;2023-07-22T00:30:04;4.57;;;3.70;;
42478;SDS011;28110;47.080;9.476;2023-07-22T00:32:31;8.17;;;3.60;;
42478;SDS011;28110;47.080;9.476;2023-07-22T00:34:56;9.80;;;3.83;;
42478;SDS011;28110;47.080;9.476;2023-07-22T00:37:22;5.17;;;3.53;;
42478;SDS011;28110;47.080;9.476;2023-07-22T00:39:48;6.07;;;3.97;;
42478;SDS011;28110;47.080;9.476;2023-07-22T00:42:13;4.47;;;3.37;;
42478;SDS011;28110;47.080;9.476;2023-07-22T00:44:39;4.77;;;3.47;;
42478;SDS011;28110;47.080;9.476;2023-07-22T00:47:04;8.33;;;3.73;;
42478;SDS011;28110;47.080;9.476;2023-07-22T00:49:30;4.87;;;3.30;;
42478;SDS011;28110;47.080;9.476;2023-07-22T00:52:00;4.72;;;3.50;;
42478;SDS011;28110;47.080;9.476;2023-07-22T00:54:30;4.40;;;3.10;;
42478;SDS011;28110;47.080;9.476;2023-07-22T00:56:56;5.88;;;3.30;;
42478;SDS011;28110;47.080;9.476;2023-07-22T00:59:22;4.45;;;2.80;;
42478;SDS011;28110;47.080;9.476;2023-07-22T01:01:49;5.30;;;3.23;;
42478;SDS011;28110;47.080;9.476;2023-07-22T01:04:14;6.22;;;3.20;;
42478;SDS011;28110;47.080;9.476;2023-07-22T01:06:42;6.90;;;2.90;;
42478;SDS011;28110;47.080;9.476;2023-07-22T01:09:09;3.90;;;2.50;;
42478;SDS011;28110;47.080;9.476;2023-07-22T01:11:35;4.22;;;2.55;;
42478;SDS011;28110;47.080;9.476;2023-07-22T01:14:01;4.82;;;2.50;;
42478;SDS011;28110;47.080;9.476;2023-07-22T01:16:27;3.42;;;2.65;;
42478;SDS011;28110;47.080;9.476;2023-07-22T01:18:54;5.10;;;2.70;;
42478;SDS011;28110;47.080;9.476;2023-07-22T01:21:23;3.20;;;2.00;;
42478;SDS011;28110;47.080;9.476;2023-07-22T01:23:49;3.58;;;2.30;;
42478;SDS011;28110;47.080;9.476;2023-07-22T01:26:15;3.42;;;2.35;;
42478;SDS011;28110;47.080;9.476;2023-07-22T01:28:41;3.50;;;2.53;;
42478;SDS011;28110;47.080;9.476;2023-07-22T01:31:08;7.57;;;2.70;;
42478;SDS011;28110;47.080;9.476;2023-07-22T01:33:33;4.45;;;2.83;;
42478;SDS011;28110;47.080;9.476;2023-07-22T01:35:59;4.73;;;3.10;;
42478;SDS011;28110;47.080;9.476;2023-07-22T01:38:25;3.80;;;2.53;;
42478;SDS011;28110;47.080;9.476;2023-07-22T01:40:51;5.37;;;2.77;;
42478;SDS011;28110;47.080;9.476;2023-07-22T01:43:16;4.97;;;2.60;;
42478;SDS011;28110;47.080;9.476;2023-07-22T01:45:42;5.10;;;2.92;;
42478;SDS011;28110;47.080;9.476;2023-07-22T01:48:07;5.00;;;2.87;;
42478;SDS011;28110;47.080;9.476;2023-07-22T01:50:33;4.47;;;2.85;;
42478;SDS011;28110;47.080;9.476;2023-07-22T01:52:59;3.47;;;2.60;;
42478;SDS011;28110;47.080;9.476;2023-07-22T01:55:24;3.83;;;2.83;;
42478;SDS011;28110;47.080;9.476;2023-07-22T01:57:50;4.30;;;3.00;;
42478;SDS011;28110;47.080;9.476;2023-07-22T02:00:16;3.90;;;2.42;;
42478;SDS011;28110;47.080;9.476;2023-07-22T02:02:42;4.20;;;2.87;;
42478;SDS011;28110;47.080;9.476;2023-07-22T02:05:08;3.92;;;2.67;;
42478;SDS011;28110;47.080;9.476;2023-07-22T02:07:37;5.45;;;2.75;;
42478;SDS011;28110;47.080;9.476;2023-07-22T02:10:03;4.90;;;2.90;;
42478;SDS011;28110;47.080;9.476;2023-07-22T02:12:28;5.28;;;2.88;;
42478;SDS011;28110;47.080;9.476;2023-07-22T02:14:54;7.37;;;3.40;;
42478;SDS011;28110;47.080;9.476;2023-07-22T02:17:20;4.65;;;3.00;;
42478;SDS011;28110;47.080;9.476;2023-07-22T02:19:45;4.63;;;3.30;;
42478;SDS011;28110;47.080;9.476;2023-07-22T02:22:11;7.00;;;3.30;;
42478;SDS011;28110;47.080;9.476;2023-07-22T02:24:37;4.18;;;3.08;;
42478;SDS011;28110;47.080;9.476;2023-07-22T02:27:03;5.20;;;3.17;;
42478;SDS011;28110;47.080;9.476;2023-07-22T02:29:29;5.88;;;2.97;;
42478;SDS011;28110;47.080;9.476;2023-07-22T02:31:56;6.28;;;3.22;;
42478;SDS011;28110;47.080;9.476;2023-07-22T02:34:22;4.53;;;2.95;;
42478;SDS011;28110;47.080;9.476;2023-07-22T02:36:48;4.80;;;3.10;;
42478;SDS011;28110;47.080;9.476;2023-07-22T02:39:14;4.88;;;3.08;;
42478;SDS011;28110;47.080;9.476;2023-07-22T02:41:39;4.87;;;3.20;;
42478;SDS011;28110;47.080;9.476;2023-07-22T02:44:05;5.80;;;3.03;;
42478;SDS011;28110;47.080;9.476;2023-07-22T02:46:30;4.72;;;3.25;;
42478;SDS011;28110;47.080;9.476;2023-07-22T02:48:56;4.67;;;3.30;;
42478;SDS011;28110;47.080;9.476;2023-07-22T02:51:23;4.85;;;2.75;;
42478;SDS011;28110;47.080;9.476;2023-07-22T02:53:49;4.60;;;3.00;;
42478;SDS011;28110;47.080;9.476;2023-07-22T02:56:14;5.90;;;2.73;;
42478;SDS011;28110;47.080;9.476;2023-07-22T02:58:40;5.30;;;3.03;;
42478;SDS011;28110;47.080;9.476;2023-07-22T03:01:07;5.45;;;3.20;;
42478;SDS011;28110;47.080;9.476;2023-07-22T03:03:33;4.25;;;2.88;;
42478;SDS011;28110;47.080;9.476;2023-07-22T03:06:03;6.60;;;3.03;;
42478;SDS011;28110;47.080;9.476;2023-07-22T03:08:29;7.22;;;3.08;;
42478;SDS011;28110;47.080;9.476;2023-07-22T03:10:55;7.23;;;3.53;;
42478;SDS011;28110;47.080;9.476;2023-07-22T03:13:20;5.53;;;3.30;;
42478;SDS011;28110;47.080;9.476;2023-07-22T03:15:46;5.13;;;3.13;;
42478;SDS011;28110;47.080;9.476;2023-07-22T03:18:11;4.95;;;3.30;;
42478;SDS011;28110;47.080;9.476;2023-07-22T03:20:37;8.73;;;3.17;;
42478;SDS011;28110;47.080;9.476;2023-07-22T03:23:04;4.30;;;2.70;;
42478;SDS011;28110;47.080;9.476;2023-07-22T03:25:30;8.05;;;3.28;;
42478;SDS011;28110;47.080;9.476;2023-07-22T03:27:57;5.38;;;2.90;;
42478;SDS011;28110;47.080;9.476;2023-07-22T03:30:27;4.80;;;2.95;;
42478;SDS011;28110;47.080;9.476;2023-07-22T03:32:52;6.20;;;3.47;;
42478;SDS011;28110;47.080;9.476;2023-07-22T03:35:18;5.47;;;3.07;;
42478;SDS011;28110;47.080;9.476;2023-07-22T03:37:43;6.00;;;3.23;;
42478;SDS011;28110;47.080;9.476;2023-07-22T03:40:09;6.38;;;3.13;;
42478;SDS011;28110;47.080;9.476;2023-07-22T03:42:48;3.77;;;2.97;;
42478;SDS011;28110;47.080;9.476;2023-07-22T03:45:14;6.50;;;2.88;;
42478;SDS011;28110;47.080;9.476;2023-07-22T03:47:41;4.63;;;2.92;;
42478;SDS011;28110;47.080;9.476;2023-07-22T03:50:09;6.13;;;2.85;;
42478;SDS011;28110;47.080;9.476;2023-07-22T03:52:35;8.00;;;2.87;;
42478;SDS011;28110;47.080;9.476;2023-07-22T03:55:00;8.07;;;3.42;;
42478;SDS011;28110;47.080;9.476;2023-07-22T03:57:27;5.20;;;3.20;;
42478;SDS011;28110;47.080;9.476;2023-07-22T03:59:55;5.75;;;3.47;;
42478;SDS011;28110;47.080;9.476;2023-07-22T04:02:21;8.40;;;3.90;;
42478;SDS011;28110;47.080;9.476;2023-07-22T04:04:47;7.32;;;4.50;;
42478;SDS011;28110;47.080;9.476;2023-07-22T04:07:13;9.40;;;4.50;;
42478;SDS011;28110;47.080;9.476;2023-07-22T04:09:39;5.67;;;3.70;;
42478;SDS011;28110;47.080;9.476;2023-07-22T04:12:05;6.28;;;3.60;;
42478;SDS011;28110;47.080;9.476;2023-07-22T04:14:32;6.47;;;3.55;;
42478;SDS011;28110;47.080;9.476;2023-07-22T04:16:57;6.85;;;3.63;;
42478;SDS011;28110;47.080;9.476;2023-07-22T04:19:23;7.47;;;3.35;;
42478;SDS011;28110;47.080;9.476;2023-07-22T04:21:48;5.40;;;3.67;;
42478;SDS011;28110;47.080;9.476;2023-07-22T04:24:14;5.83;;;3.77;;
42478;SDS011;28110;47.080;9.476;2023-07-22T04:26:41;7.05;;;3.45;;
42478;SDS011;28110;47.080;9.476;2023-07-22T04:29:07;4.43;;;3.33;;
42478;SDS011;28110;47.080;9.476;2023-07-22T04:31:33;6.03;;;3.65;;
42478;SDS011;28110;47.080;9.476;2023-07-22T04:33:58;7.40;;;3.93;;
42478;SDS011;28110;47.080;9.476;2023-07-22T04:36:24;6.13;;;4.30;;
42478;SDS011;28110;47.080;9.476;2023-07-22T04:38:49;8.60;;;4.50;;
42478;SDS011;28110;47.080;9.476;2023-07-22T04:41:15;6.83;;;4.43;;
42478;SDS011;28110;47.080;9.476;2023-07-22T04:43:40;6.55;;;4.63;;
42478;SDS011;28110;47.080;9.476;2023-07-22T04:46:06;8.10;;;3.90;;
42478;SDS011;28110;47.080;9.476;2023-07-22T04:48:32;6.60;;;4.60;;
42478;SDS011;28110;47.080;9.476;2023-07-22T04:50:58;9.77;;;4.63;;
42478;SDS011;28110;47.080;9.476;2023-07-22T04:53:23;5.33;;;4.20;;
42478;SDS011;28110;47.080;9.476;2023-07-22T04:55:49;7.78;;;4.22;;
42478;SDS011;28110;47.080;9.476;2023-07-22T04:58:14;6.47;;;3.93;;
42478;SDS011;28110;47.080;9.476;2023-07-22T05:00:40;6.75;;;4.47;;
42478;SDS011;28110;47.080;9.476;2023-07-22T05:03:07;8.02;;;4.20;;
42478;SDS011;28110;47.080;9.476;2023-07-22T05:05:33;11.10;;;4.10;;
42478;SDS011;28110;47.080;9.476;2023-07-22T05:07:58;6.13;;;4.20;;
42478;SDS011;28110;47.080;9.476;2023-07-22T05:10:24;8.52;;;4.90;;
42478;SDS011;28110;47.080;9.476;2023-07-22T05:12:50;7.93;;;4.82;;
42478;SDS011;28110;47.080;9.476;2023-07-22T05:15:15;8.90;;;5.43;;
42478;SDS011;28110;47.080;9.476;2023-07-22T05:17:41;9.23;;;5.65;;
42478;SDS011;28110;47.080;9.476;2023-07-22T05:20:06;12.67;;;6.03;;
42478;SDS011;28110;47.080;9.476;2023-07-22T05:22:36;17.48;;;6.40;;
42478;SDS011;28110;47.080;9.476;2023-07-22T05:25:02;9.23;;;6.10;;
42478;SDS011;28110;47.080;9.476;2023-07-22T05:27:29;13.37;;;7.00;;
42478;SDS011;28110;47.080;9.476;2023-07-22T05:29:55;12.13;;;7.15;;
42478;SDS011;28110;47.080;9.476;2023-07-22T05:32:21;13.02;;;7.28;;
42478;SDS011;28110;47.080;9.476;2023-07-22T05:34:47;13.83;;;7.63;;
42478;SDS011;28110;47.080;9.476;2023-07-22T05:37:13;12.40;;;7.17;;
42478;SDS011;28110;47.080;9.476;2023-07-22T05:39:38;16.10;;;8.63;;
42478;SDS011;28110;47.080;9.476;2023-07-22T05:42:04;14.90;;;7.87;;
42478;SDS011;28110;47.080;9.476;2023-07-22T05:44:30;14.10;;;8.02;;
42478;SDS011;28110;47.080;9.476;2023-07-22T05:46:55;9.57;;;7.10;;
42478;SDS011;28110;47.080;9.476;2023-07-22T05:49:21;10.13;;;7.25;;
42478;SDS011;28110;47.080;9.476;2023-07-22T05:51:46;10.65;;;7.03;;
42478;SDS011;28110;47.080;9.476;2023-07-22T05:54:12;10.33;;;7.80;;
42478;SDS011;28110;47.080;9.476;2023-07-22T05:56:37;11.02;;;8.32;;
42478;SDS011;28110;47.080;9.476;2023-07-22T05:59:03;12.93;;;8.32;;
42478;SDS011;28110;47.080;9.476;2023-07-22T06:01:29;11.52;;;8.18;;
42478;SDS011;28110;47.080;9.476;2023-07-22T06:03:54;11.03;;;8.23;;
42478;SDS011;28110;47.080;9.476;2023-07-22T06:06:20;13.90;;;9.70;;
42478;SDS011;28110;47.080;9.476;2023-07-22T06:08:45;12.02;;;8.38;;
42478;SDS011;28110;47.080;9.476;2023-07-22T06:11:11;11.23;;;8.80;;
42478;SDS011;28110;47.080;9.476;2023-07-22T06:13:36;12.60;;;9.40;;
42478;SDS011;28110;47.080;9.476;2023-07-22T06:16:02;12.32;;;8.68;;
42478;SDS011;28110;47.080;9.476;2023-07-22T06:18:28;12.60;;;8.43;;
42478;SDS011;28110;47.080;9.476;2023-07-22T06:20:53;12.05;;;8.05;;
42478;SDS011;28110;47.080;9.476;2023-07-22T06:23:19;14.07;;;8.20;;
42478;SDS011;28110;47.080;9.476;2023-07-22T06:25:45;10.60;;;7.33;;
42478;SDS011;28110;47.080;9.476;2023-07-22T06:28:10;12.88;;;8.02;;
42478;SDS011;28110;47.080;9.476;2023-07-22T06:30:36;9.73;;;7.60;;
42478;SDS011;28110;47.080;9.476;2023-07-22T06:33:01;11.27;;;6.93;;
42478;SDS011;28110;47.080;9.476;2023-07-22T06:35:27;11.90;;;7.57;;
42478;SDS011;28110;47.080;9.476;2023-07-22T06:37:53;10.27;;;7.27;;
42478;SDS011;28110;47.080;9.476;2023-07-22T06:40:18;11.15;;;6.78;;
42478;SDS011;28110;47.080;9.476;2023-07-22T06:42:44;10.07;;;7.53;;
42478;SDS011;28110;47.080;9.476;2023-07-22T06:45:09;8.03;;;6.40;;
42478;SDS011;28110;47.080;9.476;2023-07-22T06:47:35;10.75;;;6.55;;
42478;SDS011;28110;47.080;9.476;2023-07-22T06:50:01;12.32;;;7.05;;
42478;SDS011;28110;47.080;9.476;2023-07-22T06:52:27;9.55;;;7.05;;
42478;SDS011;28110;47.080;9.476;2023-07-22T06:54:53;8.53;;;7.10;;
42478;SDS011;28110;47.080;9.476;2023-07-22T06:57:18;8.97;;;7.10;;
42478;SDS011;28110;47.080;9.476;2023-07-22T06:59:44;10.52;;;6.90;;
42478;SDS011;28110;47.080;9.476;2023-07-22T07:02:10;9.50;;;6.93;;
42478;SDS011;28110;47.080;9.476;2023-07-22T07:04:35;10.10;;;6.57;;
42478;SDS011;28110;47.080;9.476;2023-07-22T07:07:01;9.55;;;7.20;;
42478;SDS011;28110;47.080;9.476;2023-07-22T07:09:27;8.90;;;7.00;;
42478;SDS011;28110;47.080;9.476;2023-07-22T07:11:53;11.15;;;7.13;;
42478;SDS011;28110;47.080;9.476;2023-07-22T07:14:21;9.48;;;6.40;;
42478;SDS011;28110;47.080;9.476;2023-07-22T07:16:48;8.40;;;5.73;;
42478;SDS011;28110;47.080;9.476;2023-07-22T07:19:14;7.82;;;5.68;;
42478;SDS011;28110;47.080;9.476;2023-07-22T07:21:40;10.50;;;5.80;;
42478;SDS011;28110;47.080;9.476;2023-07-22T07:24:05;6.38;;;4.88;;
42478;SDS011;28110;47.080;9.476;2023-07-22T07:26:31;7.90;;;5.00;;
42478;SDS011;28110;47.080;9.476;2023-07-22T07:28:56;9.03;;;5.03;;
42478;SDS011;28110;47.080;9.476;2023-07-22T07:31:22;8.73;;;5.43;;
42478;SDS011;28110;47.080;9.476;2023-07-22T07:33:47;7.90;;;5.80;;
42478;SDS011;28110;47.080;9.476;2023-07-22T07:36:13;9.23;;;5.37;;
42478;SDS011;28110;47.080;9.476;2023-07-22T07:38:39;7.43;;;5.93;;
42478;SDS011;28110;47.080;9.476;2023-07-22T07:41:06;5.70;;;4.57;;
42478;SDS011;28110;47.080;9.476;2023-07-22T07:43:36;10.97;;;5.03;;
42478;SDS011;28110;47.080;9.476;2023-07-22T07:48:50;6.57;;;4.15;;
42478;SDS011;28110;47.080;9.476;2023-07-22T07:51:17;6.30;;;4.50;;
42478;SDS011;28110;47.080;9.476;2023-07-22T07:53:44;5.45;;;4.45;;
42478;SDS011;28110;47.080;9.476;2023-07-22T07:56:12;5.90;;;4.60;;
42478;SDS011;28110;47.080;9.476;2023-07-22T07:58:38;6.25;;;4.45;;
42478;SDS011;28110;47.080;9.476;2023-07-22T08:01:04;8.77;;;4.50;;
42478;SDS011;28110;47.080;9.476;2023-07-22T08:03:30;9.15;;;3.95;;
42478;SDS011;28110;47.080;9.476;2023-07-22T08:05:56;5.93;;;4.07;;
42478;SDS011;28110;47.080;9.476;2023-07-22T08:08:22;6.53;;;4.38;;
42478;SDS011;28110;47.080;9.476;2023-07-22T08:10:47;6.43;;;3.87;;
42478;SDS011;28110;47.080;9.476;2023-07-22T08:13:26;5.15;;;4.03;;
42478;SDS011;28110;47.080;9.476;2023-07-22T08:15:52;5.38;;;4.00;;
42478;SDS011;28110;47.080;9.476;2023-07-22T08:18:18;5.55;;;3.45;;
42478;SDS011;28110;47.080;9.476;2023-07-22T08:20:44;5.30;;;3.40;;
42478;SDS011;28110;47.080;9.476;2023-07-22T08:23:12;5.78;;;3.40;;
42478;SDS011;28110;47.080;9.476;2023-07-22T08:25:37;5.15;;;3.65;;
42478;SDS011;28110;47.080;9.476;2023-07-22T08:28:03;7.67;;;4.03;;
42478;SDS011;28110;47.080;9.476;2023-07-22T08:30:28;5.37;;;3.97;;
42478;SDS011;28110;47.080;9.476;2023-07-22T08:32:54;5.47;;;3.97;;
42478;SDS011;28110;47.080;9.476;2023-07-22T08:35:19;5.28;;;3.67;;
42478;SDS011;28110;47.080;9.476;2023-07-22T08:37:47;5.22;;;3.97;;
42478;SDS011;28110;47.080;9.476;2023-07-22T08:40:13;5.23;;;3.77;;
42478;SDS011;28110;47.080;9.476;2023-07-22T08:42:38;6.30;;;4.00;;
42478;SDS011;28110;47.080;9.476;2023-07-22T08:45:05;5.07;;;4.20;;
42478;SDS011;28110;47.080;9.476;2023-07-22T08:47:34;6.07;;;4.25;;
42478;SDS011;28110;47.080;9.476;2023-07-22T08:50:03;8.40;;;4.60;;
42478;SDS011;28110;47.080;9.476;2023-07-22T08:52:32;7.65;;;4.03;;
42478;SDS011;28110;47.080;9.476;2023-07-22T08:54:59;7.47;;;4.57;;
42478;SDS011;28110;47.080;9.476;2023-07-22T08:57:26;5.53;;;4.50;;
42478;SDS011;28110;47.080;9.476;2023-07-22T08:59:54;7.88;;;4.47;;
42478;SDS011;28110;47.080;9.476;2023-07-22T09:02:19;5.45;;;4.35;;
42478;SDS011;28110;47.080;9.476;2023-07-22T09:04:45;5.38;;;4.22;;
42478;SDS011;28110;47.080;9.476;2023-07-22T09:07:11;7.30;;;4.53;;
42478;SDS011;28110;47.080;9.476;2023-07-22T09:09:39;7.03;;;4.63;;
42478;SDS011;28110;47.080;9.476;2023-07-22T09:12:06;6.00;;;4.35;;
42478;SDS011;28110;47.080;9.476;2023-07-22T09:14:32;6.63;;;4.23;;
42478;SDS011;28110;47.080;9.476;2023-07-22T09:16:59;6.50;;;3.67;;
42478;SDS011;28110;47.080;9.476;2023-07-22T09:19:24;7.65;;;3.70;;
42478;SDS011;28110;47.080;9.476;2023-07-22T09:21:50;6.67;;;3.50;;
42478;SDS011;28110;47.080;9.476;2023-07-22T09:24:19;8.47;;;3.13;;
42478;SDS011;28110;47.080;9.476;2023-07-22T09:26:46;4.57;;;3.67;;
42478;SDS011;28110;47.080;9.476;2023-07-22T09:29:12;5.15;;;3.58;;
42478;SDS011;28110;47.080;9.476;2023-07-22T09:31:48;4.73;;;3.50;;
42478;SDS011;28110;47.080;9.476;2023-07-22T09:34:20;4.55;;;3.40;;
42478;SDS011;28110;47.080;9.476;2023-07-22T09:39:20;5.78;;;3.58;;
42478;SDS011;28110;47.080;9.476;2023-07-22T09:41:46;5.88;;;3.67;;
42478;SDS011;28110;47.080;9.476;2023-07-22T09:44:12;5.63;;;3.55;;
42478;SDS011;28110;47.080;9.476;2023-07-22T09:46:37;3.97;;;3.40;;
42478;SDS011;28110;47.080;9.476;2023-07-22T09:49:04;6.03;;;3.40;;
42478;SDS011;28110;47.080;9.476;2023-07-22T09:51:34;6.72;;;3.30;;
42478;SDS011;28110;47.080;9.476;2023-07-22T09:54:02;4.23;;;3.27;;
42478;SDS011;28110;47.080;9.476;2023-07-22T09:56:29;3.80;;;2.90;;
42478;SDS011;28110;47.080;9.476;2023-07-22T09:58:55;5.20;;;3.45;;
42478;SDS011;28110;47.080;9.476;2023-07-22T10:01:28;5.93;;;2.95;;
42478;SDS011;28110;47.080;9.476;2023-07-22T10:03:55;3.77;;;2.87;;
42478;SDS011;28110;47.080;9.476;2023-07-22T10:06:26;4.78;;;3.10;;
42478;SDS011;28110;47.080;9.476;2023-07-22T10:08:53;4.82;;;2.88;;
42478;SDS011;28110;47.080;9.476;2023-07-22T10:11:22;4.43;;;2.80;;
42478;SDS011;28110;47.080;9.476;2023-07-22T10:13:50;3.60;;;2.93;;
42478;SDS011;28110;47.080;9.476;2023-07-22T10:16:17;5.10;;;2.80;;
42478;SDS011;28110;47.080;9.476;2023-07-22T10:18:43;4.80;;;3.00;;
42478;SDS011;28110;47.080;9.476;2023-07-22T10:21:10;5.03;;;2.65;;
42478;SDS011;28110;47.080;9.476;2023-07-22T10:23:36;5.13;;;2.80;;
42478;SDS011;28110;47.080;9.476;2023-07-22T10:26:03;4.57;;;2.93;;
42478;SDS011;28110;47.080;9.476;2023-07-22T10:28:30;5.53;;;3.00;;
42478;SDS011;28110;47.080;9.476;2023-07-22T10:30:57;5.68;;;3.17;;
42478;SDS011;28110;47.080;9.476;2023-07-22T10:33:23;6.75;;;3.20;;
42478;SDS011;28110;47.080;9.476;2023-07-22T10:36:23;6.60;;;3.70;;
42478;SDS011;28110;47.080;9.476;2023-07-22T10:38:42;4.93;;;3.53;;
42478;SDS011;28110;47.080;9.476;2023-07-22T10:41:11;6.07;;;3.30;;
42478;SDS011;28110;47.080;9.476;2023-07-22T10:43:38;5.93;;;3.33;;
42478;SDS011;28110;47.080;9.476;2023-07-22T10:46:09;7.10;;;3.67;;
42478;SDS011;28110;47.080;9.476;2023-07-22T10:48:38;5.53;;;3.50;;
42478;SDS011;28110;47.080;9.476;2023-07-22T10:51:09;6.18;;;3.40;;
42478;SDS011;28110;47.080;9.476;2023-07-22T10:53:43;5.03;;;3.10;;
42478;SDS011;28110;47.080;9.476;2023-07-22T10:56:13;4.90;;;3.10;;
42478;SDS011;28110;47.080;9.476;2023-07-22T11:06:40;4.97;;;3.10;;
42478;SDS011;28110;47.080;9.476;2023-07-22T11:11:58;5.78;;;3.08;;
42478;SDS011;28110;47.080;9.476;2023-07-22T11:14:27;4.65;;;2.55;;
42478;SDS011;28110;47.080;9.476;2023-07-22T11:16:56;3.90;;;2.78;;
42478;SDS011;28110;47.080;9.476;2023-07-22T11:19:23;3.80;;;2.50;;
42478;SDS011;28110;47.080;9.476;2023-07-22T11:21:50;4.18;;;2.88;;
42478;SDS011;28110;47.080;9.476;2023-07-22T11:24:17;5.05;;;2.72;;
42478;SDS011;28110;47.080;9.476;2023-07-22T11:26:44;4.32;;;3.20;;
42478;SDS011;28110;47.080;9.476;2023-07-22T11:29:11;5.40;;;2.70;;
42478;SDS011;28110;47.080;9.476;2023-07-22T11:31:38;7.67;;;2.90;;
42478;SDS011;28110;47.080;9.476;2023-07-22T11:36:37;4.20;;;2.85;;
42478;SDS011;28110;47.080;9.476;2023-07-22T11:39:08;5.85;;;3.05;;
42478;SDS011;28110;47.080;9.476;2023-07-22T11:41:35;4.40;;;2.53;;
42478;SDS011;28110;47.080;9.476;2023-07-22T11:44:02;5.30;;;2.53;;
42478;SDS011;28110;47.080;9.476;2023-07-22T11:46:57;5.13;;;2.20;;
42478;SDS011;28110;47.080;9.476;2023-07-22T11:49:26;4.63;;;2.50;;
42478;SDS011;28110;47.080;9.476;2023-07-22T11:51:58;4.32;;;2.67;;
42478;SDS011;28110;47.080;9.476;2023-07-22T11:54:25;6.88;;;3.55;;
42478;SDS011;28110;47.080;9.476;2023-07-22T11:56:51;6.27;;;2.80;;
42478;SDS011;28110;47.080;9.476;2023-07-22T11:59:17;4.25;;;2.83;;
42478;SDS011;28110;47.080;9.476;2023-07-22T12:01:56;5.45;;;2.70;;
42478;SDS011;28110;47.080;9.476;2023-07-22T12:04:23;7.77;;;2.90;;
42478;SDS011;28110;47.080;9.476;2023-07-22T12:06:48;5.60;;;2.95;;
42478;SDS011;28110;47.080;9.476;2023-07-22T12:09:14;4.77;;;2.90;;
42478;SDS011;28110;47.080;9.476;2023-07-22T12:11:39;4.40;;;2.60;;
42478;SDS011;28110;47.080;9.476;2023-07-22T12:14:12;4.47;;;2.50;;
42478;SDS011;28110;47.080;9.476;2023-07-22T12:16:39;4.60;;;2.70;;
42478;SDS011;28110;47.080;9.476;2023-07-22T12:19:07;8.07;;;3.00;;
42478;SDS011;28110;47.080;9.476;2023-07-22T12:21:33;4.75;;;2.85;;
42478;SDS011;28110;47.080;9.476;2023-07-22T12:23:59;4.97;;;2.70;;
42478;SDS011;28110;47.080;9.476;2023-07-22T12:26:26;3.80;;;2.78;;
42478;SDS011;28110;47.080;9.476;2023-07-22T12:28:52;3.63;;;2.60;;
42478;SDS011;28110;47.080;9.476;2023-07-22T12:31:18;4.45;;;2.63;;
42478;SDS011;28110;47.080;9.476;2023-07-22T12:33:43;5.60;;;2.53;;
42478;SDS011;28110;47.080;9.476;2023-07-22T12:36:09;5.65;;;2.80;;
42478;SDS011;28110;47.080;9.476;2023-07-22T12:38:35;3.17;;;2.40;;
42478;SDS011;28110;47.080;9.476;2023-07-22T12:41:01;4.47;;;2.90;;
42478;SDS011;28110;47.080;9.476;2023-07-22T12:43:26;4.37;;;2.53;;
42478;SDS011;28110;47.080;9.476;2023-07-22T12:45:52;6.53;;;3.10;;
42478;SDS011;28110;47.080;9.476;2023-07-22T12:48:18;6.38;;;2.85;;
42478;SDS011;28110;47.080;9.476;2023-07-22T12:50:43;3.13;;;2.47;;
42478;SDS011;28110;47.080;9.476;2023-07-22T12:53:09;4.05;;;2.78;;
42478;SDS011;28110;47.080;9.476;2023-07-22T12:55:35;10.30;;;2.70;;
42478;SDS011;28110;47.080;9.476;2023-07-22T12:58:00;4.70;;;2.60;;
42478;SDS011;28110;47.080;9.476;2023-07-22T13:00:26;5.43;;;2.63;;
42478;SDS011;28110;47.080;9.476;2023-07-22T13:02:53;5.35;;;2.80;;
42478;SDS011;28110;47.080;9.476;2023-07-22T13:05:18;3.83;;;2.27;;
42478;SDS011;28110;47.080;9.476;2023-07-22T13:07:44;5.73;;;2.90;;
42478;SDS011;28110;47.080;9.476;2023-07-22T13:10:10;5.87;;;3.00;;
42478;SDS011;28110;47.080;9.476;2023-07-22T13:12:37;5.55;;;3.20;;
42478;SDS011;28110;47.080;9.476;2023-07-22T13:15:04;6.85;;;3.17;;
42478;SDS011;28110;47.080;9.476;2023-07-22T13:17:30;4.03;;;2.57;;
42478;SDS011;28110;47.080;9.476;2023-07-22T13:19:56;5.18;;;3.05;;
42478;SDS011;28110;47.080;9.476;2023-07-22T13:22:22;4.13;;;2.72;;
42478;SDS011;28110;47.080;9.476;2023-07-22T13:24:48;4.67;;;2.90;;
42478;SDS011;28110;47.080;9.476;2023-07-22T13:27:13;4.07;;;2.70;;
42478;SDS011;28110;47.080;9.476;2023-07-22T13:29:39;4.25;;;2.67;;
42478;SDS011;28110;47.080;9.476;2023-07-22T13:32:04;5.67;;;2.67;;
42478;SDS011;28110;47.080;9.476;2023-07-22T13:34:31;5.50;;;2.85;;
42478;SDS011;28110;47.080;9.476;2023-07-22T13:36:57;5.78;;;3.13;;
42478;SDS011;28110;47.080;9.476;2023-07-22T13:39:22;3.63;;;2.70;;
42478;SDS011;28110;47.080;9.476;2023-07-22T13:41:48;5.30;;;2.97;;
42478;SDS011;28110;47.080;9.476;2023-07-22T13:44:14;4.80;;;2.60;;
42478;SDS011;28110;47.080;9.476;2023-07-22T13:46:39;5.63;;;2.63;;
42478;SDS011;28110;47.080;9.476;2023-07-22T13:49:05;3.33;;;2.42;;
42478;SDS011;28110;47.080;9.476;2023-07-22T13:51:30;4.53;;;2.90;;
42478;SDS011;28110;47.080;9.476;2023-07-22T13:53:56;3.90;;;2.70;;
42478;SDS011;28110;47.080;9.476;2023-07-22T13:56:23;5.78;;;2.88;;
42478;SDS011;28110;47.080;9.476;2023-07-22T13:58:49;4.20;;;2.67;;
42478;SDS011;28110;47.080;9.476;2023-07-22T14:01:14;4.30;;;2.60;;
42478;SDS011;28110;47.080;9.476;2023-07-22T14:03:40;4.63;;;2.70;;
42478;SDS011;28110;47.080;9.476;2023-07-22T14:06:05;5.30;;;2.80;;
42478;SDS011;28110;47.080;9.476;2023-07-22T14:08:31;4.77;;;2.70;;
42478;SDS011;28110;47.080;9.476;2023-07-22T14:10:57;4.13;;;3.10;;
42478;SDS011;28110;47.080;9.476;2023-07-22T14:13:23;4.03;;;2.57;;
42478;SDS011;28110;47.080;9.476;2023-07-22T14:15:48;5.00;;;2.85;;
42478;SDS011;28110;47.080;9.476;2023-07-22T14:18:14;5.93;;;2.37;;
42478;SDS011;28110;47.080;9.476;2023-07-22T14:20:42;7.03;;;2.72;;
42478;SDS011;28110;47.080;9.476;2023-07-22T14:23:08;4.45;;;2.90;;
42478;SDS011;28110;47.080;9.476;2023-07-22T14:25:34;5.37;;;2.63;;
42478;SDS011;28110;47.080;9.476;2023-07-22T14:27:59;7.03;;;2.87;;
42478;SDS011;28110;47.080;9.476;2023-07-22T14:30:25;6.17;;;2.70;;
42478;SDS011;28110;47.080;9.476;2023-07-22T14:32:50;4.83;;;2.73;;
42478;SDS011;28110;47.080;9.476;2023-07-22T14:35:16;3.53;;;2.57;;
42478;SDS011;28110;47.080;9.476;2023-07-22T14:37:41;5.90;;;2.83;;
42478;SDS011;28110;47.080;9.476;2023-07-22T14:40:07;6.50;;;2.97;;
42478;SDS011;28110;47.080;9.476;2023-07-22T14:42:36;6.30;;;2.70;;
42478;SDS011;28110;47.080;9.476;2023-07-22T14:45:02;6.23;;;2.73;;
42478;SDS011;28110;47.080;9.476;2023-07-22T14:47:27;4.45;;;3.10;;
42478;SDS011;28110;47.080;9.476;2023-07-22T14:49:53;3.97;;;2.70;;
42478;SDS011;28110;47.080;9.476;2023-07-22T14:52:19;4.53;;;2.97;;
42478;SDS011;28110;47.080;9.476;2023-07-22T14:54:44;3.90;;;2.67;;
42478;SDS011;28110;47.080;9.476;2023-07-22T14:57:10;5.40;;;2.70;;
42478;SDS011;28110;47.080;9.476;2023-07-22T14:59:36;5.53;;;2.88;;